createdAt,value
2018-08-31T00:01:48.750Z,3.80
2018-08-31T00:04:58.233Z,3.23
2018-08-31T00:08:10.902Z,3.37
2018-08-31T00:11:20.604Z,3.17
2018-08-31T00:14:18.524Z,3.43
2018-08-31T00:17:16.317Z,3.47
2018-08-31T00:20:14.099Z,3.53
2018-08-31T00:23:11.916Z,3.70
2018-08-31T00:26:24.535Z,3.43
2018-08-31T00:29:45.266Z,3.53
2018-08-31T00:34:57.512Z,3.40
2018-08-31T00:39:08.334Z,3.57
2018-08-31T00:44:20.856Z,3.90
2018-08-31T00:47:18.443Z,3.80
2018-08-31T00:50:16.251Z,4.10
2018-08-31T00:53:15.228Z,3.60
2018-08-31T00:56:12.924Z,4.10
2018-08-31T00:59:10.713Z,4.20
2018-08-31T01:02:08.746Z,4.70
2018-08-31T01:05:06.335Z,3.57
2018-08-31T01:08:04.139Z,4.07
2018-08-31T01:11:02.040Z,4.27
2018-08-31T01:13:59.948Z,4.20
2018-08-31T01:16:57.670Z,3.40
2018-08-31T01:19:55.659Z,4.47
2018-08-31T01:22:53.621Z,4.07
2018-08-31T01:25:51.514Z,3.57
2018-08-31T01:28:49.365Z,4.40
2018-08-31T01:31:47.392Z,3.90
2018-08-31T01:34:45.196Z,3.87
2018-08-31T01:37:42.856Z,4.00
2018-08-31T01:40:40.533Z,4.20
2018-08-31T01:43:38.242Z,3.77
2018-08-31T01:46:35.897Z,4.97
2018-08-31T01:49:33.473Z,4.03
2018-08-31T01:52:31.227Z,4.17
2018-08-31T01:55:34.082Z,4.50
2018-08-31T01:58:31.759Z,4.03
2018-08-31T02:01:29.295Z,4.87
2018-08-31T02:04:27.067Z,4.30
2018-08-31T02:07:25.835Z,3.97
2018-08-31T02:10:23.485Z,7.00
2018-08-31T02:13:21.180Z,4.53
2018-08-31T02:16:19.063Z,4.57
2018-08-31T02:19:17.667Z,5.00
2018-08-31T02:22:15.226Z,5.30
2018-08-31T02:25:12.940Z,5.87
2018-08-31T02:28:10.844Z,6.37
2018-08-31T02:31:08.461Z,6.17
2018-08-31T02:34:06.138Z,6.30
2018-08-31T02:37:04.184Z,5.77
2018-08-31T02:40:02.094Z,7.30
2018-08-31T02:42:59.868Z,7.30
2018-08-31T02:45:57.542Z,7.87
2018-08-31T02:48:56.341Z,6.97
2018-08-31T02:51:54.100Z,7.47
2018-08-31T02:58:20.368Z,7.70
2018-08-31T03:01:19.186Z,7.93
2018-08-31T03:04:16.856Z,7.53
2018-08-31T03:07:14.355Z,6.97
2018-08-31T03:10:12.054Z,7.37
2018-08-31T03:13:09.583Z,7.63
2018-08-31T03:16:07.181Z,7.67
2018-08-31T03:19:04.978Z,8.23
2018-08-31T03:22:02.858Z,7.83
2018-08-31T03:25:00.614Z,7.87
2018-08-31T03:27:58.402Z,8.90
2018-08-31T03:30:56.223Z,8.00
2018-08-31T03:33:54.032Z,8.27
2018-08-31T03:36:51.792Z,7.87
2018-08-31T03:39:49.460Z,8.40
2018-08-31T03:42:47.220Z,8.30
2018-08-31T03:45:44.887Z,9.67
2018-08-31T03:48:42.654Z,8.90
2018-08-31T03:51:40.156Z,9.20
2018-08-31T03:54:37.744Z,9.00
2018-08-31T03:57:35.436Z,9.83
2018-08-31T04:00:33.195Z,9.00
2018-08-31T04:03:30.852Z,9.10
2018-08-31T04:06:28.608Z,9.63
2018-08-31T04:09:26.432Z,9.70
2018-08-31T04:12:24.337Z,9.77
2018-08-31T04:15:22.930Z,9.13
2018-08-31T04:18:20.737Z,9.67
2018-08-31T04:21:18.460Z,9.10
2018-08-31T04:24:17.390Z,10.13
2018-08-31T04:27:15.028Z,9.83
2018-08-31T04:30:13.963Z,9.47
2018-08-31T04:33:11.579Z,9.50
2018-08-31T04:36:09.406Z,8.90
2018-08-31T04:39:07.127Z,8.93
2018-08-31T04:42:05.073Z,8.47
2018-08-31T04:45:02.854Z,8.67
2018-08-31T04:48:00.525Z,8.03
2018-08-31T04:50:58.389Z,8.90
2018-08-31T04:53:56.237Z,8.27
2018-08-31T04:56:54.070Z,8.73
2018-08-31T04:59:51.766Z,7.87
2018-08-31T05:02:49.572Z,7.47
2018-08-31T05:05:47.305Z,9.77
2018-08-31T05:08:45.133Z,9.03
2018-08-31T05:11:42.745Z,7.67
2018-08-31T05:14:40.384Z,7.70
2018-08-31T05:17:38.154Z,8.70
2018-08-31T05:20:36.099Z,7.07
2018-08-31T05:23:33.907Z,8.57
2018-08-31T05:26:32.645Z,7.47
2018-08-31T05:29:31.461Z,8.73
2018-08-31T05:32:29.074Z,8.17
2018-08-31T05:35:33.769Z,8.07
2018-08-31T05:38:31.347Z,7.93
2018-08-31T05:41:29.147Z,8.50
2018-08-31T05:44:26.714Z,8.87
2018-08-31T05:47:24.704Z,8.40
2018-08-31T05:50:22.359Z,8.17
2018-08-31T05:53:20.177Z,8.47
2018-08-31T05:56:23.980Z,7.47
2018-08-31T05:59:21.570Z,7.47
2018-08-31T06:02:19.376Z,6.73
2018-08-31T06:05:17.161Z,6.97
2018-08-31T06:08:14.956Z,7.00
2018-08-31T06:11:12.925Z,7.47
2018-08-31T06:14:10.580Z,6.67
2018-08-31T06:17:08.387Z,6.60
2018-08-31T06:20:06.249Z,6.57
2018-08-31T06:23:03.835Z,8.23
2018-08-31T06:26:01.620Z,6.57
2018-08-31T06:28:59.498Z,9.87
2018-08-31T06:31:57.983Z,5.30
2018-08-31T06:34:56.172Z,4.17
2018-08-31T06:37:53.817Z,3.60
2018-08-31T06:40:51.651Z,3.83
2018-08-31T06:43:49.222Z,5.23
2018-08-31T06:46:46.959Z,4.20
2018-08-31T06:49:44.510Z,3.50
2018-08-31T06:52:43.375Z,3.97
2018-08-31T06:55:40.751Z,4.00
2018-08-31T06:58:38.428Z,5.00
2018-08-31T07:01:36.255Z,3.40
2018-08-31T07:04:33.974Z,4.30
2018-08-31T07:07:31.716Z,4.30
2018-08-31T07:10:29.479Z,4.10
2018-08-31T07:13:27.078Z,3.63
2018-08-31T07:16:24.935Z,4.80
2018-08-31T07:19:22.664Z,3.77
2018-08-31T07:22:20.415Z,4.37
2018-08-31T07:25:18.081Z,3.90
2018-08-31T07:28:15.911Z,3.80
2018-08-31T07:31:13.503Z,4.17
2018-08-31T07:34:13.321Z,5.10
2018-08-31T07:37:11.162Z,5.00
2018-08-31T07:40:10.128Z,4.83
2018-08-31T07:43:08.060Z,4.93
2018-08-31T07:46:05.800Z,4.50
2018-08-31T07:49:03.502Z,4.83
2018-08-31T07:52:01.213Z,5.17
2018-08-31T07:54:59.012Z,4.80
2018-08-31T07:57:56.590Z,4.07
2018-08-31T08:00:54.361Z,4.10
2018-08-31T08:03:52.042Z,4.10
2018-08-31T08:06:49.759Z,4.30
2018-08-31T08:09:48.514Z,4.60
2018-08-31T08:12:46.258Z,3.50
2018-08-31T08:15:44.079Z,3.60
2018-08-31T08:18:41.807Z,3.90
2018-08-31T08:21:39.688Z,3.77
2018-08-31T08:24:37.359Z,3.17
2018-08-31T08:27:35.342Z,3.07
2018-08-31T08:30:34.191Z,2.80
2018-08-31T08:33:31.854Z,4.00
2018-08-31T08:36:29.720Z,4.93
2018-08-31T08:39:30.335Z,3.10
2018-08-31T08:42:28.454Z,2.80
2018-08-31T08:45:25.803Z,3.20
2018-08-31T08:48:23.644Z,3.23
2018-08-31T08:51:21.237Z,2.90
2018-08-31T08:54:19.079Z,3.53
2018-08-31T08:57:16.753Z,3.07
2018-08-31T09:00:14.710Z,2.43
2018-08-31T09:03:12.474Z,2.70
2018-08-31T09:06:10.331Z,2.20
2018-08-31T09:09:07.938Z,3.40
2018-08-31T09:12:05.585Z,3.60
2018-08-31T09:15:03.456Z,2.77
2018-08-31T09:18:01.330Z,2.83
2018-08-31T09:20:59.124Z,2.97
2018-08-31T09:23:56.869Z,2.43
2018-08-31T09:26:54.320Z,2.70
2018-08-31T09:29:53.178Z,1.90
2018-08-31T09:32:50.959Z,2.80
2018-08-31T09:35:48.515Z,2.70
2018-08-31T09:38:47.321Z,2.50
2018-08-31T09:41:46.089Z,2.73
2018-08-31T09:44:43.699Z,2.63
2018-08-31T09:47:41.433Z,2.80
2018-08-31T09:50:39.140Z,3.20
2018-08-31T09:53:37.073Z,3.00
2018-08-31T09:56:35.141Z,2.97
2018-08-31T09:59:32.608Z,2.53
2018-08-31T10:02:36.423Z,3.10
2018-08-31T10:05:34.991Z,3.47
2018-08-31T10:08:34.868Z,2.90
2018-08-31T10:11:33.804Z,2.63
2018-08-31T10:14:32.476Z,3.23
2018-08-31T10:17:30.102Z,3.20
2018-08-31T10:20:27.757Z,2.70
2018-08-31T10:23:25.368Z,2.83
2018-08-31T10:26:23.404Z,2.73
2018-08-31T10:29:21.223Z,2.73
2018-08-31T10:32:18.686Z,3.10
2018-08-31T10:35:16.401Z,2.63
2018-08-31T10:38:14.125Z,2.40
2018-08-31T10:41:11.843Z,3.10
2018-08-31T10:44:09.551Z,2.80
2018-08-31T10:47:07.024Z,3.50
2018-08-31T10:50:04.914Z,2.73
2018-08-31T10:53:02.588Z,2.50
2018-08-31T10:56:00.378Z,3.00
2018-08-31T10:58:58.091Z,2.90
2018-08-31T11:01:55.945Z,2.87
2018-08-31T11:04:53.656Z,3.73
2018-08-31T11:07:51.455Z,3.00
2018-08-31T11:10:49.050Z,3.97
2018-08-31T11:13:46.733Z,2.83
2018-08-31T11:16:44.450Z,2.57
2018-08-31T11:19:42.010Z,2.57
2018-08-31T11:22:39.727Z,2.87
2018-08-31T11:26:08.630Z,2.30
2018-08-31T11:29:06.111Z,3.20
2018-08-31T11:32:04.030Z,2.83
2018-08-31T11:35:01.755Z,2.70
2018-08-31T11:37:59.517Z,2.47
2018-08-31T11:40:57.282Z,2.80
2018-08-31T11:43:55.078Z,2.90
2018-08-31T11:46:52.981Z,3.10
2018-08-31T11:49:50.698Z,2.60
2018-08-31T11:52:48.569Z,3.23
2018-08-31T11:55:48.241Z,2.80
2018-08-31T11:58:46.047Z,3.30
2018-08-31T12:01:43.828Z,4.37
2018-08-31T12:04:41.360Z,3.10
2018-08-31T12:07:41.281Z,2.83
2018-08-31T12:10:40.032Z,3.40
2018-08-31T12:13:37.656Z,2.83
2018-08-31T12:16:35.182Z,3.17
2018-08-31T12:19:32.728Z,12.43
2018-08-31T12:22:30.408Z,3.07
2018-08-31T12:25:28.093Z,3.00
2018-08-31T12:28:25.675Z,3.00
2018-08-31T12:31:23.560Z,3.27
2018-08-31T12:34:21.258Z,4.30
2018-08-31T12:37:19.080Z,2.93
2018-08-31T12:40:16.909Z,3.60
2018-08-31T12:43:14.642Z,3.03
2018-08-31T12:46:12.345Z,2.97
2018-08-31T12:49:10.201Z,3.23
2018-08-31T12:52:07.782Z,3.43
2018-08-31T12:55:05.466Z,2.97
2018-08-31T12:58:03.217Z,2.67
2018-08-31T13:01:00.900Z,2.87
2018-08-31T13:03:58.753Z,3.40
2018-08-31T13:06:56.639Z,3.20
2018-08-31T13:09:54.410Z,2.80
2018-08-31T13:12:51.958Z,3.37
2018-08-31T13:15:50.665Z,3.63
2018-08-31T13:18:48.656Z,3.00
2018-08-31T13:21:46.458Z,4.53
2018-08-31T13:24:44.223Z,3.43
2018-08-31T13:27:42.154Z,4.03
2018-08-31T13:30:39.747Z,3.17
2018-08-31T13:33:37.613Z,3.57
2018-08-31T13:36:35.310Z,3.07
2018-08-31T13:39:33.163Z,3.97
2018-08-31T13:42:30.891Z,3.13
2018-08-31T13:45:28.579Z,3.20
2018-08-31T13:48:26.378Z,2.60
2018-08-31T13:51:23.999Z,3.53
2018-08-31T13:54:21.706Z,3.40
2018-08-31T13:57:19.348Z,2.50
2018-08-31T14:00:18.091Z,2.67
2018-08-31T14:03:15.874Z,2.37
2018-08-31T14:06:13.701Z,1.97
2018-08-31T14:09:12.233Z,2.27
2018-08-31T14:12:11.241Z,2.43
2018-08-31T14:15:08.796Z,2.60
2018-08-31T14:18:06.521Z,2.57
2018-08-31T14:21:04.268Z,2.60
2018-08-31T14:24:02.178Z,2.90
2018-08-31T14:26:59.772Z,2.53
2018-08-31T14:29:58.869Z,3.10
2018-08-31T14:32:56.744Z,2.40
2018-08-31T14:35:54.398Z,3.00
2018-08-31T14:38:51.991Z,2.37
2018-08-31T14:41:49.765Z,2.40
2018-08-31T14:44:47.471Z,2.87
2018-08-31T14:47:45.227Z,2.50
2018-08-31T14:50:42.857Z,3.47
2018-08-31T14:53:40.555Z,2.70
2018-08-31T14:56:38.286Z,4.13
2018-08-31T14:59:36.155Z,1.97
2018-08-31T15:02:33.839Z,2.70
2018-08-31T15:05:31.916Z,2.63
2018-08-31T15:08:30.816Z,2.40
2018-08-31T15:11:28.618Z,2.50
2018-08-31T15:14:26.519Z,3.37
2018-08-31T15:17:24.229Z,2.60
2018-08-31T15:20:23.090Z,2.87
2018-08-31T15:23:20.831Z,3.77
2018-08-31T15:26:18.629Z,3.00
2018-08-31T15:29:17.491Z,2.97
2018-08-31T15:32:15.044Z,2.50
2018-08-31T15:35:13.054Z,2.43
2018-08-31T15:38:10.379Z,2.70
2018-08-31T15:41:08.249Z,2.43
2018-08-31T15:44:06.000Z,2.73
2018-08-31T15:47:05.909Z,2.80
2018-08-31T15:50:12.658Z,2.70
2018-08-31T15:53:10.769Z,2.87
2018-08-31T15:56:08.389Z,3.13
2018-08-31T15:59:06.373Z,2.70
2018-08-31T16:02:03.815Z,3.43
2018-08-31T16:05:01.659Z,3.97
2018-08-31T16:07:59.623Z,3.07
2018-08-31T16:10:57.549Z,3.03
2018-08-31T16:13:55.210Z,3.33
2018-08-31T16:16:53.778Z,3.97
2018-08-31T16:19:51.334Z,3.63
2018-08-31T16:22:49.119Z,4.07
2018-08-31T16:25:46.916Z,3.73
2018-08-31T16:28:44.749Z,3.30
2018-08-31T16:31:42.260Z,3.77
2018-08-31T16:34:40.403Z,3.40
2018-08-31T16:37:38.099Z,3.70
2018-08-31T16:40:35.978Z,3.77
2018-08-31T16:43:33.761Z,3.67
2018-08-31T16:46:32.496Z,3.60
2018-08-31T16:49:30.175Z,4.20
2018-08-31T16:52:28.247Z,3.80
2018-08-31T16:55:25.924Z,3.83
2018-08-31T16:58:23.830Z,4.10
2018-08-31T17:01:21.459Z,3.67
2018-08-31T17:04:19.711Z,4.53
2018-08-31T17:07:17.331Z,9.20
2018-08-31T17:10:15.074Z,4.07
2018-08-31T17:13:12.931Z,4.30
2018-08-31T17:16:10.882Z,5.23
2018-08-31T17:19:08.651Z,3.97
2018-08-31T17:22:06.663Z,4.50
2018-08-31T17:25:04.423Z,4.43
2018-08-31T17:28:08.044Z,4.37
2018-08-31T17:31:11.708Z,4.80
2018-08-31T17:34:15.275Z,4.47
2018-08-31T17:37:19.122Z,5.00
2018-08-31T17:40:16.801Z,4.37
2018-08-31T17:43:14.594Z,5.13
2018-08-31T17:46:12.092Z,4.93
2018-08-31T17:49:10.870Z,6.07
2018-08-31T17:52:08.750Z,5.00
2018-08-31T17:55:06.800Z,5.37
2018-08-31T17:58:04.256Z,5.03
2018-08-31T18:01:02.144Z,6.53
2018-08-31T18:04:01.235Z,5.20
2018-08-31T18:06:58.761Z,5.27
2018-08-31T18:09:56.623Z,5.03
2018-08-31T18:12:54.377Z,8.20
2018-08-31T18:15:52.056Z,5.00
2018-08-31T18:18:49.763Z,5.40
2018-08-31T18:21:47.224Z,6.40
2018-08-31T18:24:45.115Z,6.03
2018-08-31T18:27:59.035Z,6.00
2018-08-31T18:30:56.913Z,6.23
2018-08-31T18:33:54.916Z,6.37
2018-08-31T18:36:52.559Z,6.33
2018-08-31T18:39:50.400Z,6.47
2018-08-31T18:42:48.009Z,7.53
2018-08-31T18:45:45.729Z,6.53
2018-08-31T18:48:43.336Z,6.73
2018-08-31T18:51:40.919Z,6.20
2018-08-31T18:54:38.593Z,6.37
2018-08-31T18:57:36.409Z,5.83
2018-08-31T19:00:34.133Z,7.20
2018-08-31T19:03:31.921Z,7.40
2018-08-31T19:06:29.701Z,6.93
2018-08-31T19:09:28.405Z,6.43
2018-08-31T19:12:26.012Z,6.47
2018-08-31T19:15:24.076Z,6.97
2018-08-31T19:18:21.566Z,6.30
2018-08-31T19:21:19.413Z,6.80
2018-08-31T19:24:17.907Z,6.40
2018-08-31T19:27:15.754Z,7.10
2018-08-31T19:30:13.376Z,7.23
2018-08-31T19:33:11.243Z,7.13
2018-08-31T19:36:08.969Z,7.00
2018-08-31T19:39:06.914Z,7.20
2018-08-31T19:42:04.737Z,8.10
2018-08-31T19:45:02.601Z,7.03
2018-08-31T19:48:00.872Z,8.20
2018-08-31T19:50:58.164Z,7.73
2018-08-31T19:53:55.945Z,7.50
2018-08-31T19:56:53.686Z,8.10
2018-08-31T19:59:51.225Z,7.60
2018-08-31T20:02:49.014Z,7.43
2018-08-31T20:05:46.843Z,7.00
2018-08-31T20:08:44.558Z,7.17
2018-08-31T20:11:42.341Z,7.57
2018-08-31T20:14:40.240Z,7.40
2018-08-31T20:17:38.174Z,8.10
2018-08-31T20:20:35.827Z,8.20
2018-08-31T20:23:33.632Z,7.80
2018-08-31T20:26:31.315Z,7.67
2018-08-31T20:29:28.829Z,7.87
2018-08-31T20:32:26.681Z,7.83
2018-08-31T20:35:24.487Z,7.97
2018-08-31T20:38:22.385Z,7.60
2018-08-31T20:41:20.200Z,7.97
2018-08-31T20:44:17.926Z,8.30
2018-08-31T20:47:15.411Z,8.60
2018-08-31T20:50:13.170Z,8.73
2018-08-31T20:53:10.786Z,8.50
2018-08-31T20:56:10.502Z,8.17
2018-08-31T20:59:08.256Z,8.07
2018-08-31T21:02:06.057Z,8.00
2018-08-31T21:05:03.812Z,8.00
2018-08-31T21:08:01.512Z,8.27
2018-08-31T21:10:59.304Z,8.00
2018-08-31T21:13:57.023Z,8.33
2018-08-31T21:16:55.264Z,7.93
2018-08-31T21:19:52.480Z,8.47
2018-08-31T21:22:50.154Z,7.90
2018-08-31T21:25:48.995Z,8.30
2018-08-31T21:28:46.764Z,7.87
2018-08-31T21:31:44.399Z,8.50
2018-08-31T21:34:42.108Z,9.23
2018-08-31T21:37:39.900Z,8.50
2018-08-31T21:40:37.265Z,8.60
2018-08-31T21:43:35.075Z,8.50
2018-08-31T21:46:32.887Z,8.03
2018-08-31T21:49:30.693Z,8.73
2018-08-31T21:52:28.225Z,8.70
2018-08-31T21:55:25.995Z,8.37
2018-08-31T21:58:23.733Z,8.50
2018-08-31T22:01:27.366Z,8.80
2018-08-31T22:04:25.094Z,8.90
2018-08-31T22:07:23.010Z,8.10
2018-08-31T22:10:21.708Z,8.70
2018-08-31T22:13:19.630Z,8.60
2018-08-31T22:16:17.466Z,7.53
2018-08-31T22:19:16.010Z,7.57
2018-08-31T22:22:13.694Z,7.70
2018-08-31T22:25:11.508Z,6.87
2018-08-31T22:28:09.234Z,7.90
2018-08-31T22:31:07.060Z,7.53
2018-08-31T22:34:04.766Z,7.53
2018-08-31T22:37:02.611Z,7.47
2018-08-31T22:40:00.405Z,6.30
2018-08-31T22:42:58.174Z,6.13
2018-08-31T22:45:56.186Z,6.87
2018-08-31T22:48:53.757Z,6.20
2018-08-31T22:51:51.580Z,5.93
2018-08-31T22:54:49.261Z,5.93
2018-08-31T22:57:47.015Z,5.97
2018-08-31T23:00:45.497Z,6.77
2018-08-31T23:03:43.632Z,5.73
2018-08-31T23:06:41.252Z,5.37
2018-08-31T23:09:38.812Z,6.00
2018-08-31T23:12:36.512Z,5.33
2018-08-31T23:15:34.335Z,5.60
2018-08-31T23:18:32.103Z,4.97
2018-08-31T23:21:29.708Z,5.07
2018-08-31T23:24:27.345Z,5.60
2018-08-31T23:27:24.951Z,5.60
2018-08-31T23:30:22.487Z,4.50
2018-08-31T23:33:20.239Z,5.57
2018-08-31T23:36:17.855Z,4.83
2018-08-31T23:39:16.728Z,4.70
2018-08-31T23:42:14.559Z,4.63
2018-08-31T23:45:12.394Z,4.57
2018-08-31T23:48:10.894Z,4.77
2018-08-31T23:51:09.058Z,5.10
2018-08-31T23:54:06.774Z,4.17
2018-08-31T23:57:04.695Z,4.60
